sensor_id;sensor_type;location;lat;lon;timestamp;pressure;altitude;pressure_sealevel;temperature;humidity
4528;BME280;62320;51.520;6.818;2022-07-29T00:04:16;101117.38;;;19.88;51.24
4528;BME280;62320;51.520;6.818;2022-07-29T00:09:18;101113.94;;;19.86;51.61
4528;BME280;62320;51.520;6.818;2022-07-29T00:14:20;101109.69;;;19.82;51.75
4528;BME280;62320;51.520;6.818;2022-07-29T00:19:21;101098.41;;;19.79;51.60
4528;BME280;62320;51.520;6.818;2022-07-29T00:24:23;101083.13;;;19.65;52.22
4528;BME280;62320;51.520;6.818;2022-07-29T00:29:24;101062.94;;;19.67;51.65
4528;BME280;62320;51.520;6.818;2022-07-29T00:34:35;101065.38;;;19.73;51.71
4528;BME280;62320;51.520;6.818;2022-07-29T00:39:55;101051.75;;;19.62;52.34
4528;BME280;62320;51.520;6.818;2022-07-29T00:44:56;101047.09;;;19.70;51.20
4528;BME280;62320;51.520;6.818;2022-07-29T00:49:58;101035.09;;;19.63;52.06
4528;BME280;62320;51.520;6.818;2022-07-29T00:54:59;101038.53;;;19.65;51.89
4528;BME280;62320;51.520;6.818;2022-07-29T01:00:14;101032.59;;;19.60;51.81
4528;BME280;62320;51.520;6.818;2022-07-29T01:05:20;101036.75;;;19.66;52.20
4528;BME280;62320;51.520;6.818;2022-07-29T01:10:23;101032.63;;;19.59;52.40
4528;BME280;62320;51.520;6.818;2022-07-29T01:15:26;101027.69;;;19.50;52.11
4528;BME280;62320;51.520;6.818;2022-07-29T01:31:00;101004.47;;;19.38;51.84
4528;BME280;62320;51.520;6.818;2022-07-29T01:36:10;101015.03;;;19.35;52.98
4528;BME280;62320;51.520;6.818;2022-07-29T01:41:16;100987.44;;;19.23;52.75
4528;BME280;62320;51.520;6.818;2022-07-29T01:46:30;101018.09;;;19.21;54.54
4528;BME280;62320;51.520;6.818;2022-07-29T01:51:38;101013.31;;;19.34;53.76
4528;BME280;62320;51.520;6.818;2022-07-29T01:56:43;100998.78;;;19.23;53.39
4528;BME280;62320;51.520;6.818;2022-07-29T02:01:47;100997.72;;;19.29;52.63
4528;BME280;62320;51.520;6.818;2022-07-29T02:06:52;101001.34;;;19.25;52.70
4528;BME280;62320;51.520;6.818;2022-07-29T02:11:58;101006.81;;;19.17;53.32
4528;BME280;62320;51.520;6.818;2022-07-29T02:17:01;100986.94;;;19.12;52.59
4528;BME280;62320;51.520;6.818;2022-07-29T02:22:03;100942.28;;;18.87;53.12
4528;BME280;62320;51.520;6.818;2022-07-29T02:27:07;101003.66;;;19.08;54.85
4528;BME280;62320;51.520;6.818;2022-07-29T02:32:10;101005.41;;;19.07;52.83
4528;BME280;62320;51.520;6.818;2022-07-29T02:37:15;100998.69;;;18.99;54.44
4528;BME280;62320;51.520;6.818;2022-07-29T02:42:18;101015.31;;;18.98;53.47
4528;BME280;62320;51.520;6.818;2022-07-29T02:47:39;101060.81;;;18.95;53.41
4528;BME280;62320;51.520;6.818;2022-07-29T02:52:52;101048.66;;;18.93;54.84
4528;BME280;62320;51.520;6.818;2022-07-29T02:58:09;101057.44;;;18.92;54.63
4528;BME280;62320;51.520;6.818;2022-07-29T03:03:16;101054.38;;;18.78;54.43
4528;BME280;62320;51.520;6.818;2022-07-29T03:08:18;101066.38;;;18.85;56.65
4528;BME280;62320;51.520;6.818;2022-07-29T03:13:20;101060.59;;;18.74;56.72
4528;BME280;62320;51.520;6.818;2022-07-29T03:18:22;101052.06;;;18.67;55.13
4528;BME280;62320;51.520;6.818;2022-07-29T03:23:24;101045.16;;;18.63;55.76
4528;BME280;62320;51.520;6.818;2022-07-29T03:28:27;101062.63;;;18.64;56.73
4528;BME280;62320;51.520;6.818;2022-07-29T03:33:28;101063.69;;;18.57;60.40
4528;BME280;62320;51.520;6.818;2022-07-29T03:38:33;101048.56;;;18.34;62.61
4528;BME280;62320;51.520;6.818;2022-07-29T03:43:38;101056.00;;;18.19;61.36
4528;BME280;62320;51.520;6.818;2022-07-29T03:48:52;101071.47;;;18.26;60.19
4528;BME280;62320;51.520;6.818;2022-07-29T03:53:58;101064.91;;;18.12;62.49
4528;BME280;62320;51.520;6.818;2022-07-29T03:59:01;101086.69;;;18.12;59.32
4528;BME280;62320;51.520;6.818;2022-07-29T04:04:03;101112.94;;;18.09;59.31
4528;BME280;62320;51.520;6.818;2022-07-29T04:09:06;101136.66;;;18.03;59.33
4528;BME280;62320;51.520;6.818;2022-07-29T04:14:10;101123.47;;;18.06;61.74
4528;BME280;62320;51.520;6.818;2022-07-29T04:19:11;101118.59;;;17.93;61.02
4528;BME280;62320;51.520;6.818;2022-07-29T04:24:13;101091.13;;;17.75;68.78
4528;BME280;62320;51.520;6.818;2022-07-29T04:29:15;101089.94;;;17.50;70.94
4528;BME280;62320;51.520;6.818;2022-07-29T04:34:16;101086.56;;;17.46;69.02
4528;BME280;62320;51.520;6.818;2022-07-29T04:39:19;101080.13;;;17.23;73.81
4528;BME280;62320;51.520;6.818;2022-07-29T04:44:23;101075.75;;;17.23;67.10
4528;BME280;62320;51.520;6.818;2022-07-29T04:49:29;101052.44;;;17.14;67.29
4528;BME280;62320;51.520;6.818;2022-07-29T04:54:30;101067.09;;;17.20;66.37
4528;BME280;62320;51.520;6.818;2022-07-29T04:59:31;101055.53;;;17.31;65.51
4528;BME280;62320;51.520;6.818;2022-07-29T05:04:33;101060.44;;;16.67;76.02
4528;BME280;62320;51.520;6.818;2022-07-29T05:09:34;101050.91;;;16.64;72.67
4528;BME280;62320;51.520;6.818;2022-07-29T05:14:36;101034.31;;;17.06;67.21
4528;BME280;62320;51.520;6.818;2022-07-29T05:19:37;101054.81;;;16.40;75.45
4528;BME280;62320;51.520;6.818;2022-07-29T05:24:40;101074.06;;;16.35;76.95
4528;BME280;62320;51.520;6.818;2022-07-29T05:29:41;101075.59;;;16.45;75.64
4528;BME280;62320;51.520;6.818;2022-07-29T05:34:46;101089.13;;;16.68;76.70
4528;BME280;62320;51.520;6.818;2022-07-29T05:39:52;101081.47;;;16.59;75.64
4528;BME280;62320;51.520;6.818;2022-07-29T05:44:59;101077.75;;;16.71;68.37
4528;BME280;62320;51.520;6.818;2022-07-29T05:50:01;101097.69;;;16.75;68.71
4528;BME280;62320;51.520;6.818;2022-07-29T05:55:03;101071.06;;;16.56;71.43
4528;BME280;62320;51.520;6.818;2022-07-29T06:00:07;101063.91;;;16.66;75.29
4528;BME280;62320;51.520;6.818;2022-07-29T06:05:08;101050.28;;;16.52;72.82
4528;BME280;62320;51.520;6.818;2022-07-29T06:10:16;101054.72;;;16.47;73.59
4528;BME280;62320;51.520;6.818;2022-07-29T06:15:18;101078.81;;;16.62;74.13
4528;BME280;62320;51.520;6.818;2022-07-29T06:20:19;101070.78;;;16.70;72.41
4528;BME280;62320;51.520;6.818;2022-07-29T06:25:27;101041.06;;;16.31;72.98
4528;BME280;62320;51.520;6.818;2022-07-29T06:30:33;101043.22;;;16.57;69.22
4528;BME280;62320;51.520;6.818;2022-07-29T06:35:35;101031.50;;;16.31;77.67
4528;BME280;62320;51.520;6.818;2022-07-29T06:40:45;101049.53;;;16.43;74.55
4528;BME280;62320;51.520;6.818;2022-07-29T06:46:09;101059.25;;;16.35;78.57
4528;BME280;62320;51.520;6.818;2022-07-29T06:51:11;101058.97;;;16.52;77.10
4528;BME280;62320;51.520;6.818;2022-07-29T06:56:13;101066.56;;;16.64;73.56
4528;BME280;62320;51.520;6.818;2022-07-29T07:01:15;101084.63;;;16.76;71.11
4528;BME280;62320;51.520;6.818;2022-07-29T07:06:18;101104.56;;;16.80;74.14
4528;BME280;62320;51.520;6.818;2022-07-29T07:11:20;101102.03;;;16.74;74.81
4528;BME280;62320;51.520;6.818;2022-07-29T07:16:21;101131.41;;;16.87;75.40
4528;BME280;62320;51.520;6.818;2022-07-29T07:21:23;101147.81;;;16.93;73.15
4528;BME280;62320;51.520;6.818;2022-07-29T07:26:24;101154.63;;;17.00;70.10
4528;BME280;62320;51.520;6.818;2022-07-29T07:31:26;101144.22;;;16.99;74.76
4528;BME280;62320;51.520;6.818;2022-07-29T07:36:28;101148.69;;;16.92;74.68
4528;BME280;62320;51.520;6.818;2022-07-29T07:41:29;101153.78;;;17.00;69.51
4528;BME280;62320;51.520;6.818;2022-07-29T07:46:32;101158.75;;;17.12;70.17
4528;BME280;62320;51.520;6.818;2022-07-29T07:51:34;101150.81;;;17.17;69.60
4528;BME280;62320;51.520;6.818;2022-07-29T07:56:35;101149.09;;;17.16;72.31
4528;BME280;62320;51.520;6.818;2022-07-29T08:01:37;101161.19;;;17.21;74.54
4528;BME280;62320;51.520;6.818;2022-07-29T08:06:56;101151.16;;;17.00;79.06
4528;BME280;62320;51.520;6.818;2022-07-29T08:11:58;101164.44;;;17.32;72.21
4528;BME280;62320;51.520;6.818;2022-07-29T08:17:00;101163.31;;;17.44;74.19
4528;BME280;62320;51.520;6.818;2022-07-29T08:22:02;101148.69;;;17.35;77.60
4528;BME280;62320;51.520;6.818;2022-07-29T08:27:03;101165.09;;;17.42;79.60
4528;BME280;62320;51.520;6.818;2022-07-29T08:32:25;101147.78;;;17.36;76.08
4528;BME280;62320;51.520;6.818;2022-07-29T08:37:46;101151.59;;;17.22;82.55
4528;BME280;62320;51.520;6.818;2022-07-29T08:42:48;101143.09;;;17.10;85.78
4528;BME280;62320;51.520;6.818;2022-07-29T08:47:52;101131.84;;;17.07;80.71
4528;BME280;62320;51.520;6.818;2022-07-29T08:52:53;101149.28;;;17.08;86.50
4528;BME280;62320;51.520;6.818;2022-07-29T08:58:00;101143.38;;;16.97;85.68
4528;BME280;62320;51.520;6.818;2022-07-29T09:03:04;101146.03;;;16.95;84.84
4528;BME280;62320;51.520;6.818;2022-07-29T09:08:06;101146.72;;;17.05;84.36
4528;BME280;62320;51.520;6.818;2022-07-29T09:13:08;101138.19;;;17.37;82.10
4528;BME280;62320;51.520;6.818;2022-07-29T09:18:09;101145.78;;;17.49;81.91
4528;BME280;62320;51.520;6.818;2022-07-29T09:23:31;101147.28;;;17.59;78.92
4528;BME280;62320;51.520;6.818;2022-07-29T09:28:32;101149.38;;;17.81;76.31
4528;BME280;62320;51.520;6.818;2022-07-29T09:33:34;101145.63;;;17.93;84.58
4528;BME280;62320;51.520;6.818;2022-07-29T09:38:36;101146.16;;;18.07;75.77
4528;BME280;62320;51.520;6.818;2022-07-29T09:43:38;101144.06;;;18.21;74.92
4528;BME280;62320;51.520;6.818;2022-07-29T09:48:41;101127.94;;;18.36;78.61
4528;BME280;62320;51.520;6.818;2022-07-29T09:53:43;101120.72;;;18.44;79.46
4528;BME280;62320;51.520;6.818;2022-07-29T09:58:44;101105.94;;;18.43;73.56
4528;BME280;62320;51.520;6.818;2022-07-29T10:03:52;101091.47;;;18.29;79.67
4528;BME280;62320;51.520;6.818;2022-07-29T10:09:06;101134.09;;;18.68;74.14
4528;BME280;62320;51.520;6.818;2022-07-29T10:14:08;101123.28;;;18.80;75.23
4528;BME280;62320;51.520;6.818;2022-07-29T10:19:10;101110.88;;;18.86;76.26
4528;BME280;62320;51.520;6.818;2022-07-29T10:24:12;101115.59;;;19.04;75.14
4528;BME280;62320;51.520;6.818;2022-07-29T10:29:15;101106.56;;;19.14;74.32
4528;BME280;62320;51.520;6.818;2022-07-29T10:34:35;101103.06;;;19.14;72.09
4528;BME280;62320;51.520;6.818;2022-07-29T10:39:49;101119.94;;;19.35;75.60
4528;BME280;62320;51.520;6.818;2022-07-29T10:44:53;101111.47;;;19.25;75.06
4528;BME280;62320;51.520;6.818;2022-07-29T10:49:58;101112.91;;;19.37;74.93
4528;BME280;62320;51.520;6.818;2022-07-29T10:55:02;101111.75;;;19.45;73.43
4528;BME280;62320;51.520;6.818;2022-07-29T11:05:12;101132.16;;;19.63;69.46
4528;BME280;62320;51.520;6.818;2022-07-29T11:15:19;101131.00;;;20.00;70.29
4528;BME280;62320;51.520;6.818;2022-07-29T11:20:44;101140.66;;;20.25;69.64
4528;BME280;62320;51.520;6.818;2022-07-29T11:26:17;101136.47;;;20.44;69.31
4528;BME280;62320;51.520;6.818;2022-07-29T11:47:37;101144.00;;;20.80;67.79
4528;BME280;62320;51.520;6.818;2022-07-29T11:52:42;101153.84;;;20.98;65.68
4528;BME280;62320;51.520;6.818;2022-07-29T11:57:57;101147.50;;;21.03;64.83
4528;BME280;62320;51.520;6.818;2022-07-29T12:03:07;101154.69;;;21.23;63.72
4528;BME280;62320;51.520;6.818;2022-07-29T12:08:12;101158.47;;;21.16;64.73
4528;BME280;62320;51.520;6.818;2022-07-29T12:13:17;101142.84;;;21.35;63.52
4528;BME280;62320;51.520;6.818;2022-07-29T12:18:19;101139.84;;;21.44;62.31
4528;BME280;62320;51.520;6.818;2022-07-29T12:23:24;101136.06;;;21.51;61.95
4528;BME280;62320;51.520;6.818;2022-07-29T12:28:29;101152.44;;;21.80;65.04
4528;BME280;62320;51.520;6.818;2022-07-29T12:33:32;101156.84;;;21.80;64.31
4528;BME280;62320;51.520;6.818;2022-07-29T12:38:35;101152.63;;;21.76;63.43
4528;BME280;62320;51.520;6.818;2022-07-29T12:43:37;101164.63;;;21.83;65.20
4528;BME280;62320;51.520;6.818;2022-07-29T12:48:40;101126.03;;;21.60;64.71
4528;BME280;62320;51.520;6.818;2022-07-29T12:54:03;101141.16;;;21.77;65.11
4528;BME280;62320;51.520;6.818;2022-07-29T12:59:18;101138.03;;;21.67;65.41
4528;BME280;62320;51.520;6.818;2022-07-29T13:04:31;101155.97;;;21.79;64.98
4528;BME280;62320;51.520;6.818;2022-07-29T13:09:45;101160.09;;;21.86;64.99
4528;BME280;62320;51.520;6.818;2022-07-29T13:14:48;101161.13;;;21.82;64.23
4528;BME280;62320;51.520;6.818;2022-07-29T13:19:52;101155.63;;;21.88;63.87
4528;BME280;62320;51.520;6.818;2022-07-29T13:24:57;101161.66;;;21.92;63.86
4528;BME280;62320;51.520;6.818;2022-07-29T13:29:59;101155.25;;;21.97;63.66
4528;BME280;62320;51.520;6.818;2022-07-29T13:35:05;101150.94;;;21.96;63.27
4528;BME280;62320;51.520;6.818;2022-07-29T13:40:07;101151.47;;;22.05;62.11
4528;BME280;62320;51.520;6.818;2022-07-29T13:45:10;101139.94;;;22.07;61.86
4528;BME280;62320;51.520;6.818;2022-07-29T13:50:12;101140.53;;;22.14;61.08
4528;BME280;62320;51.520;6.818;2022-07-29T13:55:13;101134.78;;;22.26;61.06
4528;BME280;62320;51.520;6.818;2022-07-29T14:00:15;101140.75;;;22.29;61.89
4528;BME280;62320;51.520;6.818;2022-07-29T14:05:17;101138.88;;;22.33;61.85
4528;BME280;62320;51.520;6.818;2022-07-29T14:10:18;101143.81;;;22.60;58.99
4528;BME280;62320;51.520;6.818;2022-07-29T14:15:20;101133.03;;;22.45;58.57
4528;BME280;62320;51.520;6.818;2022-07-29T14:20:22;101144.97;;;22.53;58.51
4528;BME280;62320;51.520;6.818;2022-07-29T14:25:23;101141.81;;;22.45;59.16
4528;BME280;62320;51.520;6.818;2022-07-29T14:30:25;101131.94;;;22.30;59.67
4528;BME280;62320;51.520;6.818;2022-07-29T14:35:26;101133.38;;;22.57;57.66
4528;BME280;62320;51.520;6.818;2022-07-29T14:40:28;101133.59;;;22.53;59.41
4528;BME280;62320;51.520;6.818;2022-07-29T14:45:29;101136.78;;;22.61;59.09
4528;BME280;62320;51.520;6.818;2022-07-29T14:50:31;101107.84;;;22.39;59.67
4528;BME280;62320;51.520;6.818;2022-07-29T14:55:32;101125.53;;;22.56;59.61
4528;BME280;62320;51.520;6.818;2022-07-29T15:00:34;101110.38;;;22.41;59.36
4528;BME280;62320;51.520;6.818;2022-07-29T15:05:38;101140.56;;;22.54;58.45
4528;BME280;62320;51.520;6.818;2022-07-29T15:10:39;101129.09;;;22.55;58.86
4528;BME280;62320;51.520;6.818;2022-07-29T15:15:41;101135.25;;;22.55;58.84
4528;BME280;62320;51.520;6.818;2022-07-29T15:20:43;101105.84;;;22.44;58.48
4528;BME280;62320;51.520;6.818;2022-07-29T15:25:47;101122.97;;;22.54;58.26
4528;BME280;62320;51.520;6.818;2022-07-29T15:30:48;101118.34;;;22.59;57.39
4528;BME280;62320;51.520;6.818;2022-07-29T15:35:49;101133.06;;;22.65;57.62
4528;BME280;62320;51.520;6.818;2022-07-29T15:40:51;101125.81;;;22.70;56.13
4528;BME280;62320;51.520;6.818;2022-07-29T15:45:52;101127.53;;;22.71;57.36
4528;BME280;62320;51.520;6.818;2022-07-29T15:51:13;101123.75;;;22.77;54.99
4528;BME280;62320;51.520;6.818;2022-07-29T15:56:14;101110.13;;;22.67;55.75
4528;BME280;62320;51.520;6.818;2022-07-29T16:01:16;101121.91;;;22.79;55.17
4528;BME280;62320;51.520;6.818;2022-07-29T16:06:17;101113.94;;;22.80;55.61
4528;BME280;62320;51.520;6.818;2022-07-29T16:11:19;101121.44;;;22.89;55.97
4528;BME280;62320;51.520;6.818;2022-07-29T16:16:21;101116.09;;;22.91;57.16
4528;BME280;62320;51.520;6.818;2022-07-29T16:21:22;101109.91;;;22.92;56.83
4528;BME280;62320;51.520;6.818;2022-07-29T16:26:24;101113.53;;;22.89;56.52
4528;BME280;62320;51.520;6.818;2022-07-29T16:31:26;101116.97;;;22.91;56.93
4528;BME280;62320;51.520;6.818;2022-07-29T16:36:27;101121.69;;;23.03;56.20
4528;BME280;62320;51.520;6.818;2022-07-29T16:41:29;101123.94;;;23.11;56.60
4528;BME280;62320;51.520;6.818;2022-07-29T16:46:30;101109.84;;;23.12;56.95
4528;BME280;62320;51.520;6.818;2022-07-29T16:51:31;101099.28;;;23.12;56.77
4528;BME280;62320;51.520;6.818;2022-07-29T16:56:33;101111.53;;;23.13;56.62
4528;BME280;62320;51.520;6.818;2022-07-29T17:01:34;101113.91;;;23.19;55.80
4528;BME280;62320;51.520;6.818;2022-07-29T17:06:38;101116.19;;;23.26;55.43
4528;BME280;62320;51.520;6.818;2022-07-29T17:11:41;101099.28;;;23.12;56.43
4528;BME280;62320;51.520;6.818;2022-07-29T17:16:56;101107.34;;;23.27;57.02
4528;BME280;62320;51.520;6.818;2022-07-29T17:22:03;101115.41;;;23.24;57.28
4528;BME280;62320;51.520;6.818;2022-07-29T17:27:16;101105.06;;;23.20;57.10
4528;BME280;62320;51.520;6.818;2022-07-29T17:32:17;101121.19;;;23.32;57.20
4528;BME280;62320;51.520;6.818;2022-07-29T17:37:19;101132.97;;;23.25;56.76
4528;BME280;62320;51.520;6.818;2022-07-29T17:42:20;101132.31;;;23.20;56.35
4528;BME280;62320;51.520;6.818;2022-07-29T17:47:22;101145.28;;;23.25;53.54
4528;BME280;62320;51.520;6.818;2022-07-29T17:52:23;101141.50;;;23.12;56.25
4528;BME280;62320;51.520;6.818;2022-07-29T17:57:24;101138.22;;;23.25;54.63
4528;BME280;62320;51.520;6.818;2022-07-29T18:02:26;101142.84;;;23.20;55.72
4528;BME280;62320;51.520;6.818;2022-07-29T18:07:28;101142.94;;;23.19;55.26
4528;BME280;62320;51.520;6.818;2022-07-29T18:12:30;101137.09;;;23.12;53.03
4528;BME280;62320;51.520;6.818;2022-07-29T18:17:31;101147.84;;;23.08;55.53
4528;BME280;62320;51.520;6.818;2022-07-29T18:22:53;101153.91;;;23.10;53.60
4528;BME280;62320;51.520;6.818;2022-07-29T18:27:54;101155.81;;;23.06;55.74
4528;BME280;62320;51.520;6.818;2022-07-29T18:33:00;101157.34;;;23.12;55.43
4528;BME280;62320;51.520;6.818;2022-07-29T18:38:22;101154.47;;;22.98;56.71
4528;BME280;62320;51.520;6.818;2022-07-29T18:43:23;101117.25;;;22.65;57.14
4528;BME280;62320;51.520;6.818;2022-07-29T18:48:25;101155.56;;;22.92;56.77
4528;BME280;62320;51.520;6.818;2022-07-29T18:53:26;101145.84;;;22.74;56.95
4528;BME280;62320;51.520;6.818;2022-07-29T18:58:27;101160.28;;;22.86;57.72
4528;BME280;62320;51.520;6.818;2022-07-29T19:03:29;101160.22;;;22.87;58.50
4528;BME280;62320;51.520;6.818;2022-07-29T19:08:30;101157.91;;;22.80;58.11
4528;BME280;62320;51.520;6.818;2022-07-29T19:13:32;101155.88;;;22.66;57.17
4528;BME280;62320;51.520;6.818;2022-07-29T19:18:34;101138.91;;;22.51;57.16
4528;BME280;62320;51.520;6.818;2022-07-29T19:23:35;101090.63;;;22.11;57.46
4528;BME280;62320;51.520;6.818;2022-07-29T19:28:56;101155.47;;;22.35;57.26
4528;BME280;62320;51.520;6.818;2022-07-29T19:33:58;101163.56;;;22.30;58.09
4528;BME280;62320;51.520;6.818;2022-07-29T19:39:00;101173.94;;;22.13;58.43
4528;BME280;62320;51.520;6.818;2022-07-29T19:44:01;101180.53;;;22.01;58.97
4528;BME280;62320;51.520;6.818;2022-07-29T19:49:03;101183.88;;;21.85;58.98
4528;BME280;62320;51.520;6.818;2022-07-29T19:54:06;101187.66;;;21.76;59.12
4528;BME280;62320;51.520;6.818;2022-07-29T19:59:09;101186.00;;;21.52;61.93
4528;BME280;62320;51.520;6.818;2022-07-29T20:04:12;101207.66;;;21.37;63.55
4528;BME280;62320;51.520;6.818;2022-07-29T20:09:14;101196.31;;;21.35;64.04
4528;BME280;62320;51.520;6.818;2022-07-29T20:14:21;101205.47;;;21.25;62.24
4528;BME280;62320;51.520;6.818;2022-07-29T20:19:22;101197.66;;;20.99;63.69
4528;BME280;62320;51.520;6.818;2022-07-29T20:24:24;101213.94;;;20.84;66.30
4528;BME280;62320;51.520;6.818;2022-07-29T20:29:25;101216.94;;;20.98;63.24
4528;BME280;62320;51.520;6.818;2022-07-29T20:34:27;101217.69;;;20.77;65.92
4528;BME280;62320;51.520;6.818;2022-07-29T20:39:28;101228.59;;;20.66;62.64
4528;BME280;62320;51.520;6.818;2022-07-29T20:44:30;101217.63;;;20.53;63.43
4528;BME280;62320;51.520;6.818;2022-07-29T20:49:32;101228.72;;;20.35;65.28
4528;BME280;62320;51.520;6.818;2022-07-29T20:54:33;101229.91;;;20.27;68.12
4528;BME280;62320;51.520;6.818;2022-07-29T20:59:35;101226.81;;;20.13;66.99
4528;BME280;62320;51.520;6.818;2022-07-29T21:04:36;101218.19;;;20.09;66.63
4528;BME280;62320;51.520;6.818;2022-07-29T21:09:38;101227.34;;;20.25;61.98
4528;BME280;62320;51.520;6.818;2022-07-29T21:14:39;101219.22;;;20.05;63.12
4528;BME280;62320;51.520;6.818;2022-07-29T21:19:41;101218.97;;;19.85;66.86
4528;BME280;62320;51.520;6.818;2022-07-29T21:24:43;101240.00;;;19.83;64.82
4528;BME280;62320;51.520;6.818;2022-07-29T21:29:45;101236.09;;;19.69;68.50
4528;BME280;62320;51.520;6.818;2022-07-29T21:34:46;101252.38;;;19.80;70.52
4528;BME280;62320;51.520;6.818;2022-07-29T21:39:48;101256.28;;;19.65;68.99
4528;BME280;62320;51.520;6.818;2022-07-29T21:44:50;101256.47;;;19.59;70.80
4528;BME280;62320;51.520;6.818;2022-07-29T21:49:51;101258.84;;;19.38;71.55
4528;BME280;62320;51.520;6.818;2022-07-29T21:54:53;101256.31;;;19.33;69.47
4528;BME280;62320;51.520;6.818;2022-07-29T21:59:54;101261.53;;;19.36;68.43
4528;BME280;62320;51.520;6.818;2022-07-29T22:05:02;101266.94;;;19.29;72.75
4528;BME280;62320;51.520;6.818;2022-07-29T22:10:04;101261.75;;;19.27;71.06
4528;BME280;62320;51.520;6.818;2022-07-29T22:15:07;101257.69;;;19.17;71.53
4528;BME280;62320;51.520;6.818;2022-07-29T22:20:08;101260.69;;;19.03;71.29
4528;BME280;62320;51.520;6.818;2022-07-29T22:25:10;101253.56;;;19.07;67.62
4528;BME280;62320;51.520;6.818;2022-07-29T22:30:12;101245.75;;;19.05;69.25
4528;BME280;62320;51.520;6.818;2022-07-29T22:35:14;101232.03;;;18.96;66.65
4528;BME280;62320;51.520;6.818;2022-07-29T22:40:15;101251.56;;;18.84;67.42
4528;BME280;62320;51.520;6.818;2022-07-29T22:45:17;101252.38;;;18.86;67.68
4528;BME280;62320;51.520;6.818;2022-07-29T22:50:18;101250.16;;;18.71;70.11
4528;BME280;62320;51.520;6.818;2022-07-29T22:55:20;101251.28;;;18.63;74.08
4528;BME280;62320;51.520;6.818;2022-07-29T23:00:21;101249.94;;;18.80;66.56
4528;BME280;62320;51.520;6.818;2022-07-29T23:05:23;101238.63;;;18.78;66.13
4528;BME280;62320;51.520;6.818;2022-07-29T23:10:24;101237.13;;;18.68;67.66
4528;BME280;62320;51.520;6.818;2022-07-29T23:15:26;101230.25;;;18.64;69.77
4528;BME280;62320;51.520;6.818;2022-07-29T23:20:27;101225.38;;;18.50;73.99
4528;BME280;62320;51.520;6.818;2022-07-29T23:25:29;101215.44;;;18.63;66.53
4528;BME280;62320;51.520;6.818;2022-07-29T23:30:31;101221.03;;;18.49;72.92
4528;BME280;62320;51.520;6.818;2022-07-29T23:35:32;101196.28;;;18.26;69.50
4528;BME280;62320;51.520;6.818;2022-07-29T23:40:34;101206.59;;;18.32;69.93
4528;BME280;62320;51.520;6.818;2022-07-29T23:45:36;101214.72;;;18.21;71.45
4528;BME280;62320;51.520;6.818;2022-07-29T23:50:44;101194.22;;;18.03;70.70
4528;BME280;62320;51.520;6.818;2022-07-29T23:55:46;101198.34;;;18.13;69.84
